createdAt,value
2018-10-17T00:01:23.018Z,100200.80
2018-10-17T00:03:52.486Z,100205.45
2018-10-17T00:06:21.514Z,100205.17
2018-10-17T00:08:50.687Z,100208.08
2018-10-17T00:11:19.720Z,100205.94
2018-10-17T00:13:48.759Z,100205.76
2018-10-17T00:16:17.803Z,100210.63
2018-10-17T00:18:46.839Z,100206.34
2018-10-17T00:21:15.892Z,100208.23
2018-10-17T00:23:44.919Z,100198.25
2018-10-17T00:26:13.971Z,100197.56
2018-10-17T00:28:42.997Z,100206.03
2018-10-17T00:31:12.155Z,100198.31
2018-10-17T00:33:41.183Z,100199.76
2018-10-17T00:36:10.335Z,100197.75
2018-10-17T00:38:39.488Z,100197.14
2018-10-17T00:41:08.542Z,100198.22
2018-10-17T00:43:37.551Z,100202.64
2018-10-17T00:46:06.655Z,100203.84
2018-10-17T00:48:35.943Z,100201.92
2018-10-17T00:51:05.411Z,100201.22
2018-10-17T00:53:34.423Z,100198.02
2018-10-17T00:56:03.462Z,100208.36
2018-10-17T00:58:32.494Z,100212.16
2018-10-17T01:01:01.571Z,100205.88
2018-10-17T01:03:30.601Z,100204.45
2018-10-17T01:05:59.711Z,100202.70
2018-10-17T01:08:28.763Z,100199.84
2018-10-17T01:10:57.844Z,100199.14
2018-10-17T01:13:26.888Z,100194.50
2018-10-17T01:15:55.935Z,100196.75
2018-10-17T01:18:24.942Z,100197.72
2018-10-17T01:20:54.058Z,100190.47
2018-10-17T01:23:23.102Z,100192.74
2018-10-17T01:25:52.159Z,100193.58
2018-10-17T01:28:21.186Z,100192.24
2018-10-17T01:30:50.336Z,100193.06
2018-10-17T01:33:19.377Z,100186.39
2018-10-17T01:35:48.423Z,100188.75
2018-10-17T01:38:17.459Z,100196.36
2018-10-17T01:40:46.562Z,100193.00
2018-10-17T01:43:15.758Z,100194.53
2018-10-17T01:45:44.751Z,100198.81
2018-10-17T01:48:13.818Z,100192.17
2018-10-17T01:50:42.851Z,100194.11
2018-10-17T01:53:12.024Z,100199.83
2018-10-17T01:55:40.934Z,100195.19
2018-10-17T01:58:09.941Z,100194.27
2018-10-17T02:00:39.262Z,100191.77
2018-10-17T02:03:08.292Z,100196.30
2018-10-17T02:05:37.337Z,100195.48
2018-10-17T02:08:06.360Z,100186.47
2018-10-17T02:10:35.420Z,100194.05
2018-10-17T02:13:04.541Z,100187.30
2018-10-17T02:15:33.547Z,100199.40
2018-10-17T02:18:02.738Z,100192.89
2018-10-17T02:20:31.795Z,100191.83
2018-10-17T02:23:01.079Z,100199.65
2018-10-17T02:25:30.047Z,100194.20
2018-10-17T02:27:59.101Z,100193.23
2018-10-17T02:30:28.124Z,100196.09
2018-10-17T02:32:57.147Z,100190.28
2018-10-17T02:35:26.186Z,100193.56
2018-10-17T02:37:55.299Z,100194.53
2018-10-17T02:40:24.356Z,100190.93
2018-10-17T02:42:53.381Z,100191.50
2018-10-17T02:45:22.387Z,100186.19
2018-10-17T02:47:51.554Z,100184.98
2018-10-17T02:50:20.603Z,100189.52
2018-10-17T02:52:49.655Z,100187.78
2018-10-17T02:55:18.695Z,100182.47
2018-10-17T02:57:47.855Z,100181.73
2018-10-17T03:00:17.521Z,100182.09
2018-10-17T03:02:46.568Z,100186.13
2018-10-17T03:05:15.671Z,100186.02
2018-10-17T03:07:44.623Z,100192.53
2018-10-17T03:10:13.678Z,100191.00
2018-10-17T03:12:42.712Z,100192.17
2018-10-17T03:15:11.757Z,100191.71
2018-10-17T03:17:40.812Z,100197.99
2018-10-17T03:20:10.459Z,100197.97
2018-10-17T03:22:39.717Z,100205.43
2018-10-17T03:25:09.637Z,100205.03
2018-10-17T03:27:38.637Z,100203.73
2018-10-17T03:30:07.713Z,100200.75
2018-10-17T03:32:36.759Z,100202.76
2018-10-17T03:35:06.588Z,100207.61
2018-10-17T03:37:36.078Z,100208.34
2018-10-17T03:40:05.719Z,100205.50
2018-10-17T03:42:34.805Z,100204.06
2018-10-17T03:45:03.868Z,100202.29
2018-10-17T03:47:32.904Z,100196.24
2018-10-17T03:50:02.073Z,100198.14
2018-10-17T03:52:31.080Z,100198.71
2018-10-17T03:55:00.145Z,100207.09
2018-10-17T03:57:29.154Z,100207.32
2018-10-17T03:59:58.178Z,100199.87
2018-10-17T04:02:27.226Z,100203.55
2018-10-17T04:04:56.286Z,100199.73
2018-10-17T04:07:25.307Z,100197.37
2018-10-17T04:09:54.360Z,100193.45
2018-10-17T04:12:23.514Z,100201.04
2018-10-17T04:14:52.539Z,100199.97
2018-10-17T04:17:21.577Z,100201.87
2018-10-17T04:19:50.587Z,100201.73
2018-10-17T04:22:19.626Z,100207.55
2018-10-17T04:24:48.648Z,100204.70
2018-10-17T04:27:17.740Z,100202.09
2018-10-17T04:29:46.782Z,100200.42
2018-10-17T04:32:15.887Z,100205.63
2018-10-17T04:34:44.896Z,100210.11
2018-10-17T04:37:14.043Z,100209.68
2018-10-17T04:39:42.996Z,100204.56
2018-10-17T04:42:12.071Z,100208.86
2018-10-17T04:44:41.264Z,100209.32
2018-10-17T04:47:10.388Z,100213.09
2018-10-17T04:49:40.159Z,100208.06
2018-10-17T04:52:09.188Z,100211.23
2018-10-17T04:54:38.216Z,100205.09
2018-10-17T04:57:07.253Z,100208.20
2018-10-17T04:59:36.275Z,100206.48
2018-10-17T05:02:05.341Z,100209.17
2018-10-17T05:04:34.434Z,100204.90
2018-10-17T05:07:03.457Z,100213.45
2018-10-17T05:09:32.496Z,100212.15
2018-10-17T05:12:01.520Z,100212.06
2018-10-17T05:14:30.580Z,100211.45
2018-10-17T05:16:59.641Z,100212.39
2018-10-17T05:19:28.724Z,100213.09
2018-10-17T05:21:57.872Z,100213.08
2018-10-17T05:24:26.894Z,100221.63
2018-10-17T05:26:55.941Z,100216.84
2018-10-17T05:29:24.973Z,100215.77
2018-10-17T05:31:54.007Z,100215.52
2018-10-17T05:34:23.079Z,100221.66
2018-10-17T05:36:52.471Z,100223.48
2018-10-17T05:39:21.576Z,100222.96
2018-10-17T05:41:50.642Z,100227.55
2018-10-17T05:44:19.833Z,100232.58
2018-10-17T05:46:48.880Z,100231.23
2018-10-17T05:49:17.940Z,100223.53
2018-10-17T05:51:47.195Z,100222.91
2018-10-17T05:54:16.411Z,100223.01
2018-10-17T05:56:45.465Z,100223.53
2018-10-17T05:59:14.502Z,100225.76
2018-10-17T06:01:43.727Z,100227.63
2018-10-17T06:04:12.607Z,100225.39
2018-10-17T06:06:41.655Z,100220.77
2018-10-17T06:09:11.847Z,100226.20
2018-10-17T06:11:41.103Z,100228.73
2018-10-17T06:14:14.491Z,100229.44
2018-10-17T06:16:44.197Z,100230.03
2018-10-17T06:19:13.674Z,100227.21
2018-10-17T06:21:42.724Z,100227.77
2018-10-17T06:24:11.757Z,100232.29
2018-10-17T06:26:40.785Z,100226.25
2018-10-17T06:29:09.935Z,100226.52
2018-10-17T06:31:38.895Z,100231.75
2018-10-17T06:34:08.106Z,100227.30
2018-10-17T06:36:37.048Z,100226.58
2018-10-17T06:39:08.182Z,100225.28
2018-10-17T06:41:37.222Z,100222.11
2018-10-17T06:44:06.613Z,100231.98
2018-10-17T06:46:35.567Z,100239.14
2018-10-17T06:49:04.856Z,100237.36
2018-10-17T06:51:33.831Z,100240.58
2018-10-17T06:54:03.037Z,100242.47
2018-10-17T06:56:32.050Z,100245.80
2018-10-17T06:59:01.186Z,100249.75
2018-10-17T07:01:30.177Z,100257.10
2018-10-17T07:03:59.372Z,100259.95
2018-10-17T07:06:28.406Z,100264.37
2018-10-17T07:08:57.460Z,100260.05
2018-10-17T07:11:26.483Z,100257.60
2018-10-17T07:13:55.563Z,100256.66
2018-10-17T07:16:24.670Z,100267.46
2018-10-17T07:18:53.701Z,100267.22
2018-10-17T07:21:22.795Z,100262.25
2018-10-17T07:23:51.916Z,100260.84
2018-10-17T07:26:21.020Z,100257.17
2018-10-17T07:28:50.140Z,100262.03
2018-10-17T07:31:19.143Z,100260.13
2018-10-17T07:33:48.283Z,100254.53
2018-10-17T07:36:17.441Z,100251.21
2018-10-17T07:38:46.682Z,100248.45
2018-10-17T07:41:15.724Z,100252.69
2018-10-17T07:43:48.623Z,100251.61
2018-10-17T07:46:21.040Z,100249.09
2018-10-17T07:48:50.103Z,100252.26
2018-10-17T07:51:19.187Z,100254.00
2018-10-17T07:53:48.247Z,100250.00
2018-10-17T07:56:17.298Z,100249.12
2018-10-17T07:58:46.939Z,100244.16
2018-10-17T08:01:16.061Z,100247.20
2018-10-17T08:03:45.165Z,100255.06
2018-10-17T08:06:14.607Z,100259.70
2018-10-17T08:08:43.747Z,100269.19
2018-10-17T08:11:13.039Z,100269.75
2018-10-17T08:13:42.100Z,100274.87
2018-10-17T08:16:11.317Z,100272.70
2018-10-17T08:18:40.355Z,100267.05
2018-10-17T08:21:09.483Z,100270.53
2018-10-17T08:23:38.481Z,100267.23
2018-10-17T08:26:07.518Z,100267.96
2018-10-17T08:28:36.563Z,100266.08
2018-10-17T08:31:05.631Z,100266.91
2018-10-17T08:33:34.652Z,100264.71
2018-10-17T08:36:03.984Z,100259.06
2018-10-17T08:38:32.883Z,100255.28
2018-10-17T08:41:02.072Z,100265.05
2018-10-17T08:43:30.956Z,100257.52
2018-10-17T08:45:59.983Z,100263.25
2018-10-17T08:48:29.027Z,100266.36
2018-10-17T08:50:58.130Z,100264.57
2018-10-17T08:53:27.205Z,100258.87
2018-10-17T08:55:56.261Z,100257.03
2018-10-17T08:58:25.283Z,100257.23
2018-10-17T09:00:54.319Z,100257.30
2018-10-17T09:03:23.379Z,100256.02
2018-10-17T09:05:52.480Z,100257.33
2018-10-17T09:08:21.526Z,100261.09
2018-10-17T09:10:50.489Z,100260.48
2018-10-17T09:13:19.644Z,100256.25
2018-10-17T09:15:48.603Z,100265.38
2018-10-17T09:18:17.698Z,100262.23
2018-10-17T09:20:47.078Z,100263.64
2018-10-17T09:23:15.971Z,100260.19
2018-10-17T09:25:45.095Z,100268.38
2018-10-17T09:28:14.051Z,100258.61
2018-10-17T09:30:43.157Z,100259.38
2018-10-17T09:33:12.115Z,100260.82
2018-10-17T09:35:41.304Z,100254.34
2018-10-17T09:38:10.276Z,100256.56
2018-10-17T09:40:39.488Z,100256.54
2018-10-17T09:43:08.575Z,100250.92
2018-10-17T09:45:37.568Z,100251.41
2018-10-17T09:48:06.749Z,100253.50
2018-10-17T09:50:35.688Z,100249.95
2018-10-17T09:53:04.925Z,100244.02
2018-10-17T09:55:33.956Z,100241.76
2018-10-17T09:58:03.139Z,100235.19
2018-10-17T10:00:37.467Z,100233.43
2018-10-17T10:03:06.533Z,100236.63
2018-10-17T10:05:35.563Z,100232.33
2018-10-17T10:08:04.746Z,100226.84
2018-10-17T10:10:33.792Z,100225.75
2018-10-17T10:13:02.810Z,100229.89
2018-10-17T10:15:31.876Z,100229.45
2018-10-17T10:18:00.970Z,100230.45
2018-10-17T10:20:30.062Z,100222.89
2018-10-17T10:22:59.113Z,100216.30
2018-10-17T10:25:28.148Z,100219.95
2018-10-17T10:27:57.274Z,100223.59
2018-10-17T10:30:26.253Z,100218.95
2018-10-17T10:32:55.263Z,100206.77
2018-10-17T10:35:24.292Z,100215.50
2018-10-17T10:37:54.084Z,100214.67
2018-10-17T10:40:23.157Z,100213.05
2018-10-17T10:42:52.123Z,100205.78
2018-10-17T10:45:21.736Z,100203.44
2018-10-17T10:47:50.655Z,100204.58
2018-10-17T10:50:19.762Z,100209.67
2018-10-17T10:52:48.979Z,100206.67
2018-10-17T10:55:18.008Z,100212.27
2018-10-17T10:57:47.019Z,100204.33
2018-10-17T11:00:16.136Z,100203.00
2018-10-17T11:02:45.162Z,100201.05
2018-10-17T11:05:14.354Z,100203.99
2018-10-17T11:07:43.304Z,100198.40
2018-10-17T11:10:12.322Z,100197.17
2018-10-17T11:12:41.507Z,100195.39
2018-10-17T11:15:10.873Z,100190.22
2018-10-17T11:17:39.904Z,100194.25
2018-10-17T11:20:09.332Z,100198.22
2018-10-17T11:22:38.447Z,100190.51
2018-10-17T11:25:08.380Z,100190.44
2018-10-17T11:27:37.414Z,100183.45
2018-10-17T11:30:08.144Z,100182.58
2018-10-17T11:32:37.309Z,100189.29
2018-10-17T11:35:07.616Z,100186.05
2018-10-17T11:37:36.715Z,100180.47
2018-10-17T11:40:05.813Z,100172.63
2018-10-17T11:42:34.899Z,100177.41
2018-10-17T11:45:04.121Z,100174.28
2018-10-17T11:47:33.273Z,100168.16
2018-10-17T11:50:02.435Z,100169.86
2018-10-17T11:52:31.700Z,100168.47
2018-10-17T11:55:00.856Z,100162.53
2018-10-17T11:57:29.878Z,100161.94
2018-10-17T11:59:59.056Z,100160.24
2018-10-17T12:02:28.097Z,100151.94
2018-10-17T12:04:57.559Z,100154.88
2018-10-17T12:07:26.203Z,100144.12
2018-10-17T12:09:56.777Z,100139.28
2018-10-17T12:12:26.453Z,100140.81
2018-10-17T12:14:55.454Z,100131.23
2018-10-17T12:17:24.615Z,100129.22
2018-10-17T12:19:53.763Z,100125.09
2018-10-17T12:22:22.928Z,100130.74
2018-10-17T12:24:52.364Z,100129.19
2018-10-17T12:27:21.633Z,100127.04
2018-10-17T12:29:51.123Z,100117.23
2018-10-17T12:32:20.597Z,100110.23
2018-10-17T12:34:51.107Z,100108.86
2018-10-17T12:37:20.734Z,100113.20
2018-10-17T12:39:49.943Z,100099.38
2018-10-17T12:42:19.353Z,100107.36
2018-10-17T12:44:49.356Z,100106.13
2018-10-17T12:47:18.868Z,100106.26
2018-10-17T12:49:48.646Z,100093.12
2018-10-17T12:52:17.666Z,100103.65
2018-10-17T12:54:46.967Z,100099.47
2018-10-17T12:57:16.049Z,100100.86
2018-10-17T12:59:45.728Z,100092.42
2018-10-17T13:02:14.727Z,100093.95
2018-10-17T13:04:43.995Z,100094.19
2018-10-17T13:07:13.387Z,100090.78
2018-10-17T13:09:42.419Z,100087.48
2018-10-17T13:12:11.899Z,100094.66
2018-10-17T13:14:40.955Z,100091.22
2018-10-17T13:17:10.295Z,100090.34
2018-10-17T13:19:39.312Z,100079.66
2018-10-17T13:22:10.467Z,100085.70
2018-10-17T13:24:39.708Z,100077.41
2018-10-17T13:27:08.767Z,100079.61
2018-10-17T13:29:37.965Z,100076.22
2018-10-17T13:32:07.185Z,100072.55
2018-10-17T13:34:36.435Z,100069.67
2018-10-17T13:37:05.789Z,100068.19
2018-10-17T13:39:36.863Z,100066.41
2018-10-17T13:42:06.009Z,100069.95
2018-10-17T13:44:34.967Z,100072.06
2018-10-17T13:47:06.308Z,100064.11
2018-10-17T13:49:35.409Z,100069.97
2018-10-17T13:52:04.667Z,100063.34
2018-10-17T13:54:33.776Z,100061.83
2018-10-17T13:57:02.861Z,100070.73
2018-10-17T13:59:31.937Z,100068.20
2018-10-17T14:02:00.919Z,100069.52
2018-10-17T14:04:29.963Z,100065.80
2018-10-17T14:06:59.073Z,100066.00
2018-10-17T14:09:28.051Z,100064.73
2018-10-17T14:11:57.063Z,100065.74
2018-10-17T14:14:26.092Z,100065.38
2018-10-17T14:16:55.224Z,100057.06
2018-10-17T14:19:24.259Z,100058.63
2018-10-17T14:21:53.295Z,100057.69
2018-10-17T14:24:22.342Z,100056.84
2018-10-17T14:26:51.473Z,100054.39
2018-10-17T14:29:20.526Z,100049.47
2018-10-17T14:31:49.549Z,100049.67
2018-10-17T14:34:18.596Z,100048.39
2018-10-17T14:36:47.624Z,100050.98
2018-10-17T14:39:16.753Z,100045.25
2018-10-17T14:41:45.710Z,100053.16
2018-10-17T14:44:14.847Z,100041.59
2018-10-17T14:46:43.872Z,100047.67
2018-10-17T14:49:12.907Z,100043.81
2018-10-17T14:51:41.980Z,100045.03
2018-10-17T14:54:11.007Z,100050.50
2018-10-17T14:56:40.079Z,100048.01
2018-10-17T14:59:09.178Z,100050.69
2018-10-17T15:01:38.155Z,100051.22
2018-10-17T15:04:07.177Z,100045.64
2018-10-17T15:06:36.244Z,100044.14
2018-10-17T15:09:07.228Z,100051.11
2018-10-17T15:11:36.699Z,100044.42
2018-10-17T15:14:05.644Z,100040.42
2018-10-17T15:16:34.669Z,100049.00
2018-10-17T15:19:03.712Z,100049.41
2018-10-17T15:21:32.755Z,100047.42
2018-10-17T15:24:01.842Z,100050.45
2018-10-17T15:26:30.923Z,100052.25
2018-10-17T15:29:00.667Z,100045.67
2018-10-17T15:31:29.788Z,100051.01
2018-10-17T15:33:58.820Z,100047.80
2018-10-17T15:36:27.860Z,100049.77
2018-10-17T15:38:57.094Z,100046.26
2018-10-17T15:41:26.197Z,100050.52
2018-10-17T15:43:55.243Z,100050.47
2018-10-17T15:46:24.259Z,100055.04
2018-10-17T15:48:53.307Z,100057.43
2018-10-17T15:51:22.336Z,100058.91
2018-10-17T15:53:51.412Z,100059.95
2018-10-17T15:56:20.409Z,100060.39
2018-10-17T15:58:49.463Z,100066.73
2018-10-17T16:01:18.608Z,100062.84
2018-10-17T16:03:47.717Z,100070.19
2018-10-17T16:06:17.027Z,100073.14
2018-10-17T16:08:46.003Z,100081.09
2018-10-17T16:11:15.015Z,100073.05
2018-10-17T16:13:44.076Z,100069.58
2018-10-17T16:16:13.111Z,100076.67
2018-10-17T16:18:42.155Z,100071.83
2018-10-17T16:21:11.175Z,100069.50
2018-10-17T16:23:41.235Z,100072.42
2018-10-17T16:26:10.296Z,100071.87
2018-10-17T16:28:39.302Z,100071.95
2018-10-17T16:31:08.529Z,100073.16
2018-10-17T16:33:37.456Z,100079.30
2018-10-17T16:36:06.739Z,100079.55
2018-10-17T16:38:35.799Z,100077.83
2018-10-17T16:41:05.625Z,100083.35
2018-10-17T16:43:36.343Z,100082.27
2018-10-17T16:46:06.370Z,100083.50
2018-10-17T16:48:38.166Z,100091.95
2018-10-17T16:51:08.742Z,100088.23
2018-10-17T16:53:39.726Z,100094.70
2018-10-17T16:56:10.524Z,100099.81
2018-10-17T16:58:40.946Z,100097.77
2018-10-17T17:01:10.727Z,100110.45
2018-10-17T17:03:45.704Z,100109.35
2018-10-17T17:06:14.828Z,100106.08
2018-10-17T17:08:43.795Z,100103.21
2018-10-17T17:11:12.990Z,100108.67
2018-10-17T17:13:42.004Z,100114.81
2018-10-17T17:16:11.066Z,100111.75
2018-10-17T17:18:40.076Z,100109.16
2018-10-17T17:21:09.196Z,100115.18
2018-10-17T17:23:38.159Z,100117.52
2018-10-17T17:26:07.291Z,100113.16
2018-10-17T17:28:36.341Z,100116.05
2018-10-17T17:31:05.432Z,100115.08
2018-10-17T17:33:34.503Z,100120.33
2018-10-17T17:36:03.564Z,100118.66
2018-10-17T17:38:32.571Z,100119.50
2018-10-17T17:41:01.697Z,100120.61
2018-10-17T17:43:30.727Z,100122.05
2018-10-17T17:45:59.847Z,100131.11
2018-10-17T17:48:28.831Z,100130.82
2018-10-17T17:50:58.011Z,100131.59
2018-10-17T17:53:27.071Z,100125.73
2018-10-17T17:55:56.088Z,100129.77
2018-10-17T17:58:25.670Z,100132.39
2018-10-17T18:00:54.675Z,100129.92
2018-10-17T18:03:23.725Z,100139.23
2018-10-17T18:05:52.891Z,100135.48
2018-10-17T18:08:21.996Z,100131.22
2018-10-17T18:10:51.157Z,100135.00
2018-10-17T18:13:20.210Z,100133.55
2018-10-17T18:15:49.227Z,100134.77
2018-10-17T18:18:18.400Z,100127.27
2018-10-17T18:20:47.414Z,100127.97
2018-10-17T18:23:16.455Z,100134.72
2018-10-17T18:25:45.506Z,100130.00
2018-10-17T18:28:15.509Z,100129.94
2018-10-17T18:30:44.433Z,100138.33
2018-10-17T18:33:13.551Z,100141.95
2018-10-17T18:35:42.645Z,100149.89
2018-10-17T18:38:11.719Z,100144.52
2018-10-17T18:40:40.894Z,100151.91
2018-10-17T18:43:09.865Z,100152.03
2018-10-17T18:45:38.977Z,100151.36
2018-10-17T18:48:08.016Z,100154.27
2018-10-17T18:50:37.032Z,100149.73
2018-10-17T18:53:06.111Z,100148.70
2018-10-17T18:55:35.253Z,100159.27
2018-10-17T18:58:04.310Z,100149.06
2018-10-17T19:00:33.439Z,100153.56
2018-10-17T19:03:09.873Z,100156.22
2018-10-17T19:05:38.812Z,100158.71
2018-10-17T19:08:08.430Z,100163.13
2018-10-17T19:10:37.393Z,100161.46
2018-10-17T19:13:07.117Z,100163.14
2018-10-17T19:15:37.051Z,100165.87
2018-10-17T19:18:06.387Z,100171.13
2018-10-17T19:20:35.479Z,100161.95
2018-10-17T19:23:04.797Z,100171.78
2018-10-17T19:25:35.825Z,100172.77
2018-10-17T19:28:05.026Z,100171.48
2018-10-17T19:30:34.180Z,100174.74
2018-10-17T19:33:03.988Z,100175.22
2018-10-17T19:35:33.019Z,100178.48
2018-10-17T19:38:02.127Z,100182.42
2018-10-17T19:40:31.147Z,100184.59
2018-10-17T19:43:00.451Z,100178.61
2018-10-17T19:45:29.516Z,100184.05
2018-10-17T19:47:58.631Z,100182.04
2018-10-17T19:50:27.578Z,100190.00
2018-10-17T19:52:56.643Z,100192.53
2018-10-17T19:55:25.665Z,100190.74
2018-10-17T19:57:54.731Z,100193.87
2018-10-17T20:00:23.783Z,100199.02
2018-10-17T20:02:52.854Z,100203.71
2018-10-17T20:05:21.867Z,100196.39
2018-10-17T20:07:51.020Z,100190.31
2018-10-17T20:10:19.922Z,100201.10
2018-10-17T20:12:48.983Z,100198.05
2018-10-17T20:15:18.153Z,100194.89
2018-10-17T20:17:47.000Z,100198.55
2018-10-17T20:20:16.057Z,100195.16
2018-10-17T20:22:45.103Z,100202.62
2018-10-17T20:25:14.230Z,100194.48
2018-10-17T20:27:43.219Z,100196.02
2018-10-17T20:30:12.296Z,100201.92
2018-10-17T20:32:41.399Z,100196.20
2018-10-17T20:35:10.542Z,100200.91
2018-10-17T20:37:39.511Z,100199.45
2018-10-17T20:40:08.584Z,100203.30
2018-10-17T20:42:37.625Z,100203.66
2018-10-17T20:45:07.001Z,100199.92
2018-10-17T20:47:36.007Z,100198.34
2018-10-17T20:50:05.612Z,100206.63
2018-10-17T20:52:34.634Z,100203.50
2018-10-17T20:55:03.651Z,100199.35
2018-10-17T20:57:32.687Z,100207.38
2018-10-17T21:00:02.228Z,100207.02
2018-10-17T21:02:31.311Z,100208.33
2018-10-17T21:05:00.457Z,100205.36
2018-10-17T21:07:29.480Z,100198.77
2018-10-17T21:09:58.547Z,100204.41
2018-10-17T21:12:27.551Z,100201.72
2018-10-17T21:14:56.615Z,100203.73
2018-10-17T21:17:25.663Z,100204.69
2018-10-17T21:19:54.776Z,100204.61
2018-10-17T21:22:23.762Z,100202.14
2018-10-17T21:24:52.768Z,100196.95
2018-10-17T21:27:21.802Z,100209.57
2018-10-17T21:29:50.828Z,100208.27
2018-10-17T21:32:19.951Z,100208.14
2018-10-17T21:34:48.967Z,100211.36
2018-10-17T21:37:18.066Z,100214.59
2018-10-17T21:39:47.107Z,100210.97
2018-10-17T21:42:16.175Z,100210.27
2018-10-17T21:44:45.220Z,100210.25
2018-10-17T21:47:14.350Z,100198.88
2018-10-17T21:49:43.388Z,100193.05
2018-10-17T21:52:12.407Z,100191.95
2018-10-17T21:54:41.443Z,100197.52
2018-10-17T21:57:10.490Z,100196.47
2018-10-17T21:59:39.535Z,100192.36
2018-10-17T22:02:08.638Z,100200.47
2018-10-17T22:04:37.603Z,100199.59
2018-10-17T22:07:06.718Z,100200.69
2018-10-17T22:09:35.786Z,100201.95
2018-10-17T22:12:04.791Z,100201.00
2018-10-17T22:14:33.831Z,100201.69
2018-10-17T22:17:06.216Z,100203.09
2018-10-17T22:19:36.496Z,100204.94
2018-10-17T22:22:06.042Z,100206.51
2018-10-17T22:24:35.096Z,100203.11
2018-10-17T22:27:04.518Z,100200.97
2018-10-17T22:29:33.667Z,100203.58
2018-10-17T22:32:02.760Z,100201.27
2018-10-17T22:34:31.775Z,100205.20
2018-10-17T22:37:01.088Z,100214.61
2018-10-17T22:39:30.331Z,100211.92
2018-10-17T22:41:59.475Z,100211.59
2018-10-17T22:44:28.676Z,100206.37
2018-10-17T22:46:57.783Z,100209.09
2018-10-17T22:49:26.847Z,100207.93
2018-10-17T22:51:55.871Z,100205.43
2018-10-17T22:54:25.564Z,100207.31
2018-10-17T22:56:54.624Z,100205.64
2018-10-17T22:59:23.676Z,100210.25
2018-10-17T23:01:52.751Z,100209.11
2018-10-17T23:04:21.783Z,100208.00
2018-10-17T23:06:50.843Z,100215.02
2018-10-17T23:09:19.873Z,100211.09
2018-10-17T23:11:48.927Z,100211.66
2018-10-17T23:14:18.001Z,100208.58
2018-10-17T23:16:47.002Z,100213.05
2018-10-17T23:19:16.099Z,100210.94
2018-10-17T23:21:45.172Z,100212.77
2018-10-17T23:24:14.236Z,100207.42
2018-10-17T23:26:43.288Z,100213.16
2018-10-17T23:29:12.438Z,100207.25
2018-10-17T23:31:41.524Z,100211.50
2018-10-17T23:34:10.567Z,100204.48
2018-10-17T23:36:39.588Z,100206.11
2018-10-17T23:39:09.175Z,100207.09
2018-10-17T23:41:38.783Z,100199.52
2018-10-17T23:44:07.858Z,100199.87
2018-10-17T23:46:36.880Z,100196.33
2018-10-17T23:49:08.963Z,100190.77
2018-10-17T23:51:38.083Z,100197.20
2018-10-17T23:54:07.211Z,100197.99
2018-10-17T23:56:36.215Z,100196.22
2018-10-17T23:59:05.423Z,100193.75
